Time;durP1;ratioP1;P1;durP2;ratioP2;P2;SDS_P1;SDS_P2;PMS_P1;PMS_P2;Temp;Humidity;BMP_temperature;BMP_pressure;BME280_temperature;BME280_humidity;BME280_pressure;Samples;Min_cycle;Max_cycle;Signal;HPM_P1;HPM_P2
2022/01/14 05:17:05;;;;;;;12.68;2.30;;;25.50;75.90;;;;;;5078687;28;20147;-64
2022/01/14 05:19:32;;;;;;;13.77;2.60;;;25.40;75.00;;;;;;5084310;28;20045;-63
2022/01/14 05:22:00;;;;;;;14.65;2.70;;;25.40;74.10;;;;;;5067203;28;20125;-65
2022/01/14 05:24:27;;;;;;;12.32;3.10;;;25.40;75.60;;;;;;5088243;28;20066;-64
2022/01/14 05:26:54;;;;;;;14.45;3.75;;;25.30;75.80;;;;;;5089210;28;20024;-64
2022/01/14 05:29:21;;;;;;;23.42;4.82;;;25.30;76.20;;;;;;5086738;28;20040;-64
2022/01/14 05:32:00;;;;;;;9.00;2.58;;;25.30;76.50;;;;;;5088222;28;20024;-66
2022/01/14 05:34:28;;;;;;;14.27;3.10;;;25.30;76.40;;;;;;5086279;28;20054;-64
2022/01/14 05:36:55;;;;;;;23.40;3.20;;;25.30;75.50;;;;;;5088363;28;20428;-64
2022/01/14 05:39:23;;;;;;;10.13;2.42;;;25.30;75.70;;;;;;5088447;28;20078;-67
2022/01/14 05:41:51;;;;;;;12.65;3.40;;;25.30;76.60;;;;;;5066316;28;20119;-65
2022/01/14 05:44:18;;;;;;;12.50;2.35;;;25.30;77.20;;;;;;5087515;28;20035;-64
2022/01/14 05:46:45;;;;;;;11.40;2.70;;;25.20;76.90;;;;;;5087855;28;20059;-65
2022/01/14 05:49:13;;;;;;;11.45;2.88;;;25.30;77.50;;;;;;5088757;28;20028;-67
2022/01/14 05:51:40;;;;;;;11.57;2.47;;;25.20;76.90;;;;;;5088759;28;20039;-72
2022/01/14 05:54:07;;;;;;;9.52;2.28;;;25.20;77.20;;;;;;5053379;28;20567;-71
2022/01/14 05:56:35;;;;;;;10.40;2.80;;;25.20;76.80;;;;;;5068321;28;20409;-71
2022/01/14 05:59:02;;;;;;;18.77;2.67;;;25.20;76.10;;;;;;5083547;28;20101;-70
2022/01/14 06:01:32;;;;;;;9.43;2.13;;;25.20;77.20;;;;;;5059666;28;20036;-71
2022/01/14 06:04:01;;;;;;;;;;;25.20;76.40;;;;;;5076078;28;20032;-71
2022/01/14 06:06:29;;;;;;;14.60;2.42;;;25.20;77.50;;;;;;5089107;28;19955;-73
2022/01/14 06:08:56;;;;;;;14.35;2.70;;;25.20;76.10;;;;;;5088585;28;20432;-66
2022/01/14 06:11:23;;;;;;;11.85;2.50;;;25.10;76.10;;;;;;5089505;28;20040;-65
2022/01/14 06:13:50;;;;;;;12.18;3.20;;;25.10;76.60;;;;;;5088846;28;20581;-65
2022/01/14 06:16:18;;;;;;;10.10;2.22;;;25.10;76.80;;;;;;5088455;28;20032;-66
2022/01/14 06:18:45;;;;;;;13.20;3.05;;;25.10;77.50;;;;;;5089459;28;20048;-65
2022/01/14 06:21:12;;;;;;;13.00;5.53;;;25.10;77.00;;;;;;5082720;28;20077;-67
2022/01/14 06:23:39;;;;;;;6.78;2.10;;;25.00;76.50;;;;;;5067393;28;20032;-67
2022/01/14 06:26:07;;;;;;;8.88;2.45;;;25.10;76.60;;;;;;5085648;28;20472;-67
2022/01/14 06:28:35;;;;;;;11.60;2.47;;;25.00;75.90;;;;;;5088290;28;20146;-66
2022/01/14 06:31:02;;;;;;;7.20;1.95;;;25.10;76.40;;;;;;5074826;28;20039;-65
2022/01/14 06:33:29;;;;;;;13.85;2.80;;;25.00;76.00;;;;;;5089008;28;20494;-67
2022/01/14 06:35:56;;;;;;;9.70;2.33;;;25.10;75.10;;;;;;5087328;28;20047;-66
2022/01/14 06:38:23;;;;;;;11.70;2.53;;;25.00;76.10;;;;;;5088585;28;20098;-66
2022/01/14 06:40:51;;;;;;;16.25;3.20;;;25.00;75.70;;;;;;5088453;28;20115;-66
2022/01/14 06:43:18;;;;;;;10.20;3.08;;;25.00;76.40;;;;;;5087998;28;20032;-65
2022/01/14 06:45:45;;;;;;;12.70;2.65;;;25.00;75.70;;;;;;5086767;28;20577;-66
2022/01/14 06:48:12;;;;;;;15.27;3.47;;;25.00;76.20;;;;;;5066634;28;20036;-67
2022/01/14 06:50:39;;;;;;;9.48;2.58;;;25.00;75.70;;;;;;5088797;28;20083;-67
2022/01/14 06:53:06;;;;;;;15.25;3.42;;;25.00;75.90;;;;;;5080292;28;20044;-67
2022/01/14 06:55:34;;;;;;;8.90;2.42;;;25.10;76.10;;;;;;5079148;28;20047;-67
2022/01/14 06:58:01;;;;;;;11.43;3.38;;;25.10;76.20;;;;;;5080846;28;20067;-67
2022/01/14 07:00:28;;;;;;;15.38;3.10;;;25.00;76.60;;;;;;5084746;28;20048;-67
2022/01/14 07:02:56;;;;;;;11.50;2.70;;;25.10;76.80;;;;;;5039670;28;20422;-67
2022/01/14 07:05:23;;;;;;;13.75;2.85;;;25.00;75.30;;;;;;5063315;28;20071;-67
2022/01/14 07:07:50;;;;;;;14.15;2.70;;;25.00;75.80;;;;;;5085381;28;20028;-67
2022/01/14 07:10:17;;;;;;;10.60;2.15;;;25.00;75.30;;;;;;5073119;28;20029;-67
2022/01/14 07:12:45;;;;;;;11.13;2.33;;;25.00;74.90;;;;;;5080551;28;20048;-67
2022/01/14 07:15:13;;;;;;;18.83;3.10;;;25.00;74.60;;;;;;5066382;28;20173;-67
2022/01/14 07:17:41;;;;;;;10.48;3.17;;;25.00;74.60;;;;;;5088136;28;20616;-68
2022/01/14 07:20:12;;;;;;;14.77;3.88;;;25.00;74.80;;;;;;5082699;28;20131;-67
2022/01/14 07:22:40;;;;;;;7.38;2.60;;;25.00;75.10;;;;;;5087456;28;20037;-71
2022/01/14 07:25:08;;;;;;;13.70;2.88;;;25.00;75.50;;;;;;5069590;28;20043;-77
2022/01/14 07:27:35;;;;;;;8.95;2.20;;;25.00;76.10;;;;;;5053350;28;20024;-75
2022/01/14 07:30:03;;;;;;;11.13;2.90;;;25.00;76.00;;;;;;5072413;28;20028;-70
2022/01/14 07:32:31;;;;;;;10.80;2.30;;;24.90;75.90;;;;;;5086984;28;20402;-69
2022/01/14 07:34:58;;;;;;;11.93;2.80;;;25.00;76.40;;;;;;5088660;28;20090;-69
2022/01/14 07:37:25;;;;;;;11.80;2.30;;;25.00;76.70;;;;;;5086523;28;20098;-69
2022/01/14 07:39:52;;;;;;;19.20;4.32;;;24.90;76.50;;;;;;5062225;28;20132;-70
2022/01/14 07:42:20;;;;;;;20.95;4.18;;;24.90;77.40;;;;;;5069512;28;20035;-70
2022/01/14 07:44:47;;;;;;;23.20;4.07;;;25.00;77.00;;;;;;5089720;28;20040;-70
2022/01/14 07:47:14;;;;;;;15.73;3.85;;;25.00;77.10;;;;;;5090308;28;20431;-71
2022/01/14 07:49:41;;;;;;;14.32;4.53;;;24.90;77.60;;;;;;5085684;28;20389;-73
2022/01/14 07:52:08;;;;;;;24.98;7.57;;;24.90;77.80;;;;;;5067825;28;20041;-73
2022/01/14 07:54:35;;;;;;;27.05;6.45;;;24.90;78.10;;;;;;5084653;28;20037;-72
2022/01/14 07:57:03;;;;;;;19.88;4.57;;;24.90;78.40;;;;;;5090213;28;20027;-73
2022/01/14 07:59:32;;;;;;;11.98;3.22;;;24.80;78.40;;;;;;5086858;28;20405;-73
2022/01/14 08:01:59;;;;;;;14.35;3.25;;;24.80;78.20;;;;;;5070500;28;20029;-74
2022/01/14 08:04:27;;;;;;;9.93;2.60;;;24.80;78.00;;;;;;5091230;28;20036;-73
2022/01/14 08:06:57;;;;;;;12.80;3.00;;;24.80;77.90;;;;;;5084281;28;20029;-73
2022/01/14 08:09:25;;;;;;;10.45;2.67;;;24.80;77.60;;;;;;5074479;28;20440;-75
2022/01/14 08:11:52;;;;;;;11.70;2.90;;;24.80;77.60;;;;;;5089189;28;20103;-75
2022/01/14 08:14:20;;;;;;;10.32;3.13;;;24.80;77.10;;;;;;5089706;28;20115;-74
2022/01/14 08:16:47;;;;;;;18.77;4.63;;;24.80;77.00;;;;;;5068166;28;20048;-74
2022/01/14 08:19:14;;;;;;;11.05;3.22;;;24.80;76.90;;;;;;5087862;28;20501;-72
2022/01/14 08:21:41;;;;;;;11.88;2.80;;;24.80;76.90;;;;;;5090828;28;20032;-71
2022/01/14 08:24:08;;;;;;;16.77;3.83;;;24.80;76.70;;;;;;5080865;28;20044;-75
2022/01/14 08:26:35;;;;;;;13.02;3.10;;;24.80;77.10;;;;;;5078982;28;20032;-72
2022/01/14 08:29:03;;;;;;;10.95;2.85;;;24.80;77.20;;;;;;5090820;28;20166;-70
2022/01/14 08:31:30;;;;;;;14.15;2.50;;;24.80;77.40;;;;;;5087249;28;20546;-73
2022/01/14 08:33:57;;;;;;;13.35;2.88;;;24.80;77.50;;;;;;5083296;28;20031;-71
2022/01/14 08:36:27;;;;;;;12.43;2.72;;;24.80;77.80;;;;;;5082745;28;20513;-71
2022/01/14 08:38:53;;;;;;;;;;;24.80;77.60;;;;;;5079409;28;20371;-71
2022/01/14 08:53:35;;;;;;;21.48;4.00;;;24.70;77.70;;;;;;5054921;28;20144;-69
2022/01/14 08:56:02;;;;;;;18.25;3.00;;;24.70;77.90;;;;;;5053380;28;20061;-67
2022/01/14 08:58:29;;;;;;;14.40;3.05;;;24.70;77.90;;;;;;5057558;28;20434;-71
2022/01/14 09:00:56;;;;;;;7.80;2.83;;;24.70;77.80;;;;;;5055186;28;20510;-70
2022/01/14 09:03:24;;;;;;;14.52;3.65;;;24.70;77.80;;;;;;5052693;28;20037;-69
2022/01/14 09:05:51;;;;;;;13.48;2.90;;;24.70;77.80;;;;;;5053804;28;20052;-68
2022/01/14 09:08:18;;;;;;;15.55;3.60;;;24.70;77.80;;;;;;5052041;28;20086;-68
2022/01/14 09:10:45;;;;;;;10.57;2.83;;;24.70;77.80;;;;;;5053164;28;20402;-71
2022/01/14 09:13:13;;;;;;;11.88;2.90;;;24.70;77.70;;;;;;5040871;28;20414;-68
2022/01/14 09:15:40;;;;;;;12.27;3.03;;;24.70;77.80;;;;;;5037765;28;20044;-68
2022/01/14 09:18:08;;;;;;;10.63;3.15;;;24.70;77.80;;;;;;5052548;28;20375;-67
2022/01/14 09:20:35;;;;;;;12.45;2.80;;;24.70;77.80;;;;;;5052349;28;20040;-69
2022/01/14 09:23:03;;;;;;;8.95;2.72;;;24.70;77.80;;;;;;5053339;28;20413;-72
2022/01/14 09:25:30;;;;;;;16.02;3.10;;;24.70;77.90;;;;;;5057976;28;20028;-70
2022/01/14 09:27:57;;;;;;;13.73;3.80;;;24.60;77.90;;;;;;5057529;28;20025;-69
2022/01/14 09:30:25;;;;;;;12.60;3.35;;;24.60;78.20;;;;;;5041787;28;20398;-70
2022/01/14 09:32:52;;;;;;;11.18;3.15;;;24.60;78.40;;;;;;5053214;28;20033;-73
2022/01/14 09:35:19;;;;;;;20.35;3.50;;;24.60;78.40;;;;;;5034639;28;20033;-73
2022/01/14 09:37:47;;;;;;;16.92;2.78;;;24.60;78.30;;;;;;5029631;28;20036;-70
2022/01/14 09:40:16;;;;;;;20.30;4.15;;;24.60;78.50;;;;;;5050384;28;20053;-68
2022/01/14 09:42:47;;;;;;;18.98;3.83;;;24.60;78.50;;;;;;5017057;28;20395;-71
2022/01/14 09:45:15;;;;;;;15.50;3.47;;;24.60;78.30;;;;;;5051561;28;20115;-68
2022/01/14 09:47:42;;;;;;;18.02;4.50;;;24.50;78.00;;;;;;5056225;28;20028;-68
2022/01/14 09:50:10;;;;;;;19.30;4.63;;;24.50;78.20;;;;;;5046079;28;20037;-68
2022/01/14 09:52:38;;;;;;;16.58;4.05;;;24.60;78.20;;;;;;5061494;28;20044;-67
2022/01/14 09:55:05;;;;;;;10.43;3.80;;;24.50;78.50;;;;;;5046876;28;20041;-68
2022/01/14 09:57:33;;;;;;;12.68;3.25;;;24.50;78.60;;;;;;5069439;28;20111;-69
2022/01/14 10:00:00;;;;;;;14.05;3.03;;;24.50;78.80;;;;;;5051306;28;20071;-70
2022/01/14 10:02:41;;;;;;;14.38;3.08;;;24.50;78.70;;;;;;5065865;28;20028;-68
2022/01/14 10:05:10;;;;;;;14.30;3.55;;;24.50;78.70;;;;;;5063586;28;20114;-71
2022/01/14 10:07:37;;;;;;;12.57;2.80;;;24.50;78.80;;;;;;5043825;28;20033;-70
2022/01/14 10:10:23;;;;;;;15.00;3.45;;;24.50;78.70;;;;;;5060296;28;20177;-70
2022/01/14 10:12:51;;;;;;;14.13;3.38;;;24.50;78.90;;;;;;5065358;28;20060;-65
2022/01/14 10:15:18;;;;;;;11.73;2.92;;;24.50;78.70;;;;;;5048296;28;20043;-65
2022/01/14 10:17:46;;;;;;;22.85;4.40;;;24.50;79.00;;;;;;5050941;28;20353;-65
2022/01/14 10:20:14;;;;;;;17.13;3.85;;;24.50;79.10;;;;;;5068602;28;20040;-65
2022/01/14 10:22:43;;;;;;;16.80;3.92;;;24.40;79.20;;;;;;5057482;28;20063;-67
2022/01/14 10:25:12;;;;;;;14.88;3.35;;;24.40;79.70;;;;;;5049908;28;20033;-66
2022/01/14 10:27:40;;;;;;;22.25;4.10;;;24.40;79.70;;;;;;5057880;28;20040;-68
2022/01/14 10:30:15;;;;;;;20.85;3.55;;;24.40;79.80;;;;;;5065154;28;20384;-67
2022/01/14 10:32:44;;;;;;;12.48;3.05;;;24.40;80.00;;;;;;5056521;28;20036;-68
2022/01/14 10:35:16;;;;;;;15.97;3.83;;;24.40;80.30;;;;;;5066943;28;20036;-70
2022/01/14 10:37:43;;;;;;;18.75;3.63;;;24.30;80.40;;;;;;5042991;28;20036;-69
2022/01/14 10:40:29;;;;;;;22.27;3.88;;;24.30;80.30;;;;;;5047796;28;20406;-69
2022/01/14 10:43:07;;;;;;;11.93;2.95;;;24.30;80.40;;;;;;5046091;28;20029;-70
2022/01/14 10:45:34;;;;;;;23.70;4.35;;;24.30;80.50;;;;;;5061012;28;20121;-70
2022/01/14 10:48:02;;;;;;;16.27;3.53;;;24.30;80.90;;;;;;5054999;28;20115;-68
2022/01/14 10:50:36;;;;;;;17.40;3.55;;;24.30;81.20;;;;;;5067384;28;20399;-70
2022/01/14 10:53:14;;;;;;;16.05;3.78;;;24.30;81.30;;;;;;5068159;28;20040;-72
2022/01/14 10:55:46;;;;;;;19.35;3.85;;;24.30;81.40;;;;;;5059014;28;20033;-69
2022/01/14 10:58:34;;;;;;;24.70;3.90;;;24.30;81.80;;;;;;5057440;28;20111;-71
2022/01/14 11:01:13;;;;;;;22.55;4.03;;;24.30;81.70;;;;;;5069261;28;20061;-69
2022/01/14 11:03:59;;;;;;;16.00;3.72;;;24.30;81.90;;;;;;5033252;28;20099;-71
2022/01/14 11:06:28;;;;;;;22.17;4.10;;;24.30;81.90;;;;;;5031948;28;20094;-71
2022/01/14 11:09:04;;;;;;;21.00;4.30;;;24.30;82.10;;;;;;5032056;28;20031;-71
2022/01/14 11:11:39;;;;;;;17.92;3.60;;;24.20;82.10;;;;;;5049880;28;20056;-71
2022/01/14 11:14:06;;;;;;;21.77;4.38;;;24.20;82.20;;;;;;5036179;28;20075;-74
2022/01/14 11:16:34;;;;;;;19.23;3.17;;;24.20;82.30;;;;;;5054992;28;20060;-72
2022/01/14 11:19:02;;;;;;;16.92;3.47;;;24.20;82.40;;;;;;5064339;28;20045;-72
2022/01/14 11:24:23;;;;;;;20.73;3.70;;;24.20;82.30;;;;;;5072298;28;20093;-70
2022/01/14 11:26:51;;;;;;;19.63;4.00;;;24.20;82.10;;;;;;5056524;28;20040;-71
2022/01/14 11:29:20;;;;;;;21.25;3.65;;;24.20;82.10;;;;;;5071430;28;20032;-70
2022/01/14 11:32:02;;;;;;;17.17;4.05;;;24.20;82.20;;;;;;5021414;28;20407;-71
2022/01/14 11:34:34;;;;;;;18.48;3.72;;;24.20;82.30;;;;;;5040824;28;20041;-70
2022/01/14 11:37:03;;;;;;;18.15;4.07;;;24.20;82.10;;;;;;5043884;28;20167;-70
2022/01/14 11:39:31;;;;;;;22.10;3.90;;;24.20;82.00;;;;;;5053015;28;20041;-70
2022/01/14 11:42:09;;;;;;;19.33;3.80;;;24.10;82.10;;;;;;5055271;28;20516;-70
2022/01/14 12:27:12;;;;;;;20.48;3.58;;;24.00;83.50;;;;;;5067104;28;20075;-72
2022/01/14 12:29:41;;;;;;;19.63;3.97;;;23.90;83.60;;;;;;5050630;28;20049;-72
2022/01/14 12:32:13;;;;;;;20.20;4.63;;;24.00;83.70;;;;;;5066854;28;20028;-72
2022/01/14 12:34:49;;;;;;;17.55;3.35;;;24.00;83.90;;;;;;5034515;28;20395;-71
2022/01/14 12:37:22;;;;;;;16.98;3.83;;;23.90;84.00;;;;;;5072249;28;20033;-73
2022/01/14 12:39:52;;;;;;;29.30;4.63;;;23.90;84.30;;;;;;5059150;28;20097;-73
2022/01/14 12:42:20;;;;;;;22.38;6.25;;;23.90;84.40;;;;;;5061050;28;20101;-72
2022/01/14 12:44:50;;;;;;;26.92;8.77;;;23.90;84.50;;;;;;5072348;28;20509;-72
2022/01/14 12:47:25;;;;;;;20.88;5.22;;;23.90;84.50;;;;;;5061372;28;20033;-72
2022/01/14 12:49:52;;;;;;;19.40;4.32;;;23.80;84.30;;;;;;5034852;28;20121;-73
2022/01/14 12:52:37;;;;;;;19.38;3.78;;;23.90;84.00;;;;;;5051188;28;20321;-72
2022/01/14 12:55:06;;;;;;;20.60;4.03;;;23.80;84.10;;;;;;5052122;28;20746;-72
2022/01/14 12:57:33;;;;;;;19.75;4.28;;;23.80;84.00;;;;;;5034456;28;20076;-72
2022/01/14 13:00:00;;;;;;;13.60;3.05;;;23.80;84.00;;;;;;5051869;28;20491;-72
2022/01/14 13:02:31;;;;;;;20.60;4.25;;;23.80;83.80;;;;;;5058255;28;20083;-72
2022/01/14 13:05:19;;;;;;;16.05;3.60;;;23.80;83.80;;;;;;5034743;28;20102;-72
2022/01/14 13:07:47;;;;;;;15.27;3.65;;;23.80;83.90;;;;;;5050517;28;20052;-72
2022/01/14 13:10:15;;;;;;;20.90;3.95;;;23.80;83.80;;;;;;5034065;28;20072;-72
2022/01/14 13:12:44;;;;;;;14.95;3.72;;;23.80;83.70;;;;;;5071601;28;20052;-72
2022/01/14 13:15:20;;;;;;;17.33;3.80;;;23.80;83.80;;;;;;5036547;28;20091;-72
2022/01/14 13:18:00;;;;;;;18.38;3.58;;;23.80;83.90;;;;;;5050354;28;20025;-73
2022/01/14 13:20:28;;;;;;;17.02;3.83;;;23.80;83.90;;;;;;5035726;28;20041;-73
2022/01/14 13:22:55;;;;;;;17.05;3.15;;;23.80;84.10;;;;;;5048832;28;20029;-73
2022/01/14 13:25:30;;;;;;;16.90;3.70;;;23.80;84.20;;;;;;5051256;28;20112;-73
2022/01/14 13:27:58;;;;;;;13.98;3.22;;;23.80;84.10;;;;;;5065506;28;20041;-73
2022/01/14 13:30:39;;;;;;;25.50;3.97;;;23.80;84.20;;;;;;5065953;28;20559;-73
2022/01/14 13:33:17;;;;;;;23.10;4.38;;;23.70;84.20;;;;;;5053135;28;20076;-73
2022/01/14 13:35:48;;;;;;;18.33;4.03;;;23.70;84.10;;;;;;5065952;28;20039;-73
2022/01/14 13:38:19;;;;;;;13.90;3.58;;;23.70;84.20;;;;;;5069943;28;20052;-73
2022/01/14 13:40:46;;;;;;;20.85;3.80;;;23.70;84.70;;;;;;5069352;28;20102;-73
2022/01/14 13:43:37;;;;;;;23.95;4.30;;;23.70;84.60;;;;;;5068808;28;20043;-74
2022/01/14 13:46:12;;;;;;;23.17;3.60;;;23.70;84.60;;;;;;5070114;28;20441;-73
2022/01/14 13:48:53;;;;;;;16.42;4.72;;;23.70;84.70;;;;;;5052179;28;20037;-73
2022/01/14 13:51:27;;;;;;;17.42;3.45;;;23.60;84.60;;;;;;5068848;28;20045;-73
2022/01/14 13:53:55;;;;;;;19.10;3.90;;;23.60;84.70;;;;;;5069614;28;20040;-73
2022/01/14 13:56:24;;;;;;;19.50;4.22;;;23.60;84.70;;;;;;5051705;28;20029;-75
2022/01/14 13:58:54;;;;;;;15.10;3.17;;;23.60;84.70;;;;;;5050939;28;20041;-75
2022/01/14 14:01:22;;;;;;;19.20;3.67;;;23.60;84.90;;;;;;5052470;28;20064;-75
2022/01/14 14:04:03;;;;;;;19.20;4.20;;;23.60;84.80;;;;;;5069731;28;20517;-74
2022/01/14 14:06:36;;;;;;;17.63;3.70;;;23.60;84.70;;;;;;5069321;28;20048;-74
2022/01/14 14:09:21;;;;;;;14.65;3.80;;;23.60;84.70;;;;;;5078437;28;20120;-74
2022/01/14 14:17:10;;;;;;;18.65;3.97;;;23.50;85.00;;;;;;5065706;28;20123;-73
2022/01/14 14:19:43;;;;;;;26.10;3.90;;;23.50;84.90;;;;;;5069447;28;20067;-73
2022/01/14 14:22:16;;;;;;;34.33;4.50;;;23.60;85.00;;;;;;5068970;28;20033;-74
2022/01/14 14:25:11;;;;;;;14.15;3.80;;;23.60;85.00;;;;;;5029575;28;20320;-74
2022/01/14 14:27:40;;;;;;;21.08;4.43;;;23.60;85.00;;;;;;4967657;28;2471003;-73
2022/01/14 14:30:12;;;;;;;23.17;4.57;;;23.50;85.10;;;;;;5070442;28;20116;-73
2022/01/14 14:32:40;;;;;;;24.33;4.38;;;23.50;85.10;;;;;;5068952;28;20706;-73
2022/01/14 14:35:14;;;;;;;24.10;4.05;;;23.50;85.30;;;;;;5068773;28;20036;-73
2022/01/14 14:37:47;;;;;;;23.58;4.65;;;23.50;85.30;;;;;;5084045;28;20110;-73
2022/01/14 14:40:18;;;;;;;16.75;3.33;;;23.50;85.50;;;;;;5051901;28;20091;-73
2022/01/14 14:42:46;;;;;;;23.25;4.40;;;23.50;85.80;;;;;;5053655;28;20032;-73
2022/01/14 14:45:14;;;;;;;19.15;3.70;;;23.40;85.80;;;;;;5050884;28;20044;-73
2022/01/14 14:47:41;;;;;;;22.63;4.43;;;23.50;86.00;;;;;;5051460;28;20496;-72
2022/01/14 14:50:09;;;;;;;17.35;4.15;;;23.40;86.10;;;;;;5052137;28;20068;-72
2022/01/14 14:52:37;;;;;;;22.27;4.55;;;23.40;86.10;;;;;;5052158;28;20028;-73
2022/01/14 14:55:05;;;;;;;16.63;3.63;;;23.40;86.20;;;;;;5064832;28;20063;-73
2022/01/14 14:57:33;;;;;;;23.23;4.32;;;23.40;86.30;;;;;;5052172;28;20170;-73
2022/01/14 15:00:00;;;;;;;23.08;4.53;;;23.40;86.20;;;;;;5068888;28;20047;-73
2022/01/14 15:02:28;;;;;;;21.48;4.32;;;23.40;86.30;;;;;;5070084;28;20040;-73
2022/01/14 15:04:55;;;;;;;19.02;4.35;;;23.30;86.50;;;;;;5069433;28;20047;-73
2022/01/14 15:07:22;;;;;;;20.02;4.40;;;23.30;86.50;;;;;;5069102;28;20036;-73
2022/01/14 15:09:53;;;;;;;23.60;4.88;;;23.30;86.70;;;;;;5051803;28;20043;-73
2022/01/14 15:12:20;;;;;;;23.15;4.28;;;23.30;86.60;;;;;;5069716;28;20047;-74
2022/01/14 15:14:48;;;;;;;18.65;4.20;;;23.30;86.60;;;;;;5069498;28;20029;-74
2022/01/14 15:19:52;;;;;;;26.25;4.93;;;23.30;86.70;;;;;;5051302;28;20052;-73
2022/01/14 15:22:20;;;;;;;16.95;4.07;;;23.30;86.70;;;;;;5035636;28;20037;-74
2022/01/14 15:24:48;;;;;;;18.15;4.28;;;23.30;86.80;;;;;;5065610;28;20561;-73
2022/01/14 15:27:15;;;;;;;26.92;4.60;;;23.30;86.60;;;;;;5068703;28;20163;-74
2022/01/14 15:29:44;;;;;;;19.63;3.97;;;23.20;86.70;;;;;;5051871;28;20166;-74
2022/01/14 15:32:11;;;;;;;25.50;4.85;;;23.30;86.60;;;;;;5065063;28;20502;-74
2022/01/14 15:34:38;;;;;;;23.17;4.57;;;23.20;86.50;;;;;;5065669;28;20041;-74
2022/01/14 15:37:07;;;;;;;22.42;4.35;;;23.20;86.60;;;;;;5050131;28;20491;-74
2022/01/14 15:39:34;;;;;;;26.02;5.65;;;23.20;86.80;;;;;;5050912;28;20084;-73
2022/01/14 15:42:02;;;;;;;20.73;4.22;;;23.20;86.80;;;;;;5069613;28;20037;-73
2022/01/14 15:44:29;;;;;;;23.63;4.40;;;23.20;86.90;;;;;;5068532;28;20679;-74
2022/01/14 15:46:56;;;;;;;18.70;4.78;;;23.20;86.90;;;;;;5069509;28;20064;-74
2022/01/14 15:49:24;;;;;;;15.57;3.97;;;23.20;86.90;;;;;;5067609;28;20040;-74
2022/01/14 15:51:51;;;;;;;21.20;5.05;;;23.20;86.80;;;;;;5051617;28;20441;-74
2022/01/14 15:54:18;;;;;;;17.02;4.63;;;23.10;86.90;;;;;;5069082;28;20025;-74
2022/01/14 15:56:45;;;;;;;21.90;5.03;;;23.10;86.90;;;;;;5058761;28;20449;-74
2022/01/14 15:59:13;;;;;;;20.48;5.28;;;23.10;87.00;;;;;;5062874;28;20114;-74
2022/01/14 16:01:40;;;;;;;21.27;4.57;;;23.10;87.20;;;;;;5071194;28;20037;-74
2022/01/14 16:04:07;;;;;;;23.60;4.30;;;23.10;87.30;;;;;;5054082;28;20028;-74
2022/01/14 16:06:34;;;;;;;26.15;6.07;;;23.10;87.40;;;;;;5073742;28;20067;-74
2022/01/14 16:09:01;;;;;;;24.40;5.65;;;23.10;87.40;;;;;;5065381;28;20055;-73
2022/01/14 16:11:28;;;;;;;22.15;5.13;;;23.10;87.40;;;;;;5073020;28;20040;-73
2022/01/14 16:14:09;;;;;;;21.55;4.93;;;23.00;87.50;;;;;;5067391;28;20044;-74
2022/01/14 16:16:36;;;;;;;26.30;5.80;;;23.10;87.40;;;;;;5072861;28;20036;-74
2022/01/14 16:19:04;;;;;;;20.88;4.75;;;23.00;87.60;;;;;;5066351;28;20093;-74
2022/01/14 16:21:31;;;;;;;19.88;4.32;;;23.00;87.60;;;;;;5071149;28;20040;-74
2022/01/14 16:23:58;;;;;;;18.15;3.97;;;23.00;87.70;;;;;;5072720;28;20036;-74
2022/01/14 16:26:26;;;;;;;22.35;4.68;;;23.00;87.80;;;;;;5061158;28;20033;-74
2022/01/14 16:28:53;;;;;;;22.83;5.07;;;23.00;87.80;;;;;;5071950;28;20129;-74
2022/01/14 16:31:20;;;;;;;25.80;4.88;;;22.90;87.90;;;;;;5071305;28;20043;-74
2022/01/14 16:33:47;;;;;;;20.80;4.85;;;23.00;88.00;;;;;;5053970;28;20155;-74
2022/01/14 16:36:14;;;;;;;24.13;5.38;;;22.90;88.10;;;;;;5070385;28;20033;-74
2022/01/14 16:38:42;;;;;;;20.50;4.45;;;22.90;88.10;;;;;;5066520;28;20037;-74
2022/01/14 16:41:10;;;;;;;23.15;5.25;;;22.90;88.10;;;;;;5053237;28;20037;-75
2022/01/14 16:43:37;;;;;;;24.02;4.75;;;23.00;88.10;;;;;;5071437;28;20028;-74
2022/01/14 16:46:05;;;;;;;24.17;5.53;;;22.90;88.20;;;;;;5038177;28;20024;-74
2022/01/14 16:48:32;;;;;;;28.60;5.18;;;23.00;88.20;;;;;;5057687;28;20087;-73
2022/01/14 16:51:00;;;;;;;26.92;5.22;;;23.00;88.30;;;;;;5071275;28;20040;-73
2022/01/14 16:53:30;;;;;;;23.40;5.15;;;22.90;88.30;;;;;;5053773;28;20047;-72
2022/01/14 16:55:58;;;;;;;27.08;4.70;;;22.90;88.30;;;;;;5069448;28;20147;-74
2022/01/14 16:58:26;;;;;;;24.85;5.32;;;22.90;88.40;;;;;;5067862;28;20044;-73
2022/01/14 17:00:53;;;;;;;24.80;5.25;;;22.90;88.50;;;;;;5068684;28;20127;-73
2022/01/14 17:03:22;;;;;;;22.27;4.65;;;22.90;88.50;;;;;;5059044;28;20495;-74
2022/01/14 17:05:49;;;;;;;20.05;4.18;;;22.90;88.50;;;;;;5072037;28;20041;-74
2022/01/14 17:08:16;;;;;;;27.13;5.00;;;22.90;88.50;;;;;;5052484;28;20436;-73
2022/01/14 17:10:44;;;;;;;21.25;4.00;;;22.90;88.60;;;;;;5071459;28;20040;-74
